sensor_id;sensor_type;location;lat;lon;timestamp;P1;durP1;ratioP1;P2;durP2;ratioP2
6973;SDS011;3527;52.376;8.990;2024-01-30T00:00:17;20.80;;;13.13;;
6973;SDS011;3527;52.376;8.990;2024-01-30T00:02:44;18.50;;;12.10;;
6973;SDS011;3527;52.376;8.990;2024-01-30T00:05:12;21.03;;;12.30;;
6973;SDS011;3527;52.376;8.990;2024-01-30T00:07:39;18.07;;;12.30;;
6973;SDS011;3527;52.376;8.990;2024-01-30T00:10:05;21.27;;;13.13;;
6973;SDS011;3527;52.376;8.990;2024-01-30T00:12:32;19.97;;;13.70;;
6973;SDS011;3527;52.376;8.990;2024-01-30T00:14:59;16.10;;;12.37;;
6973;SDS011;3527;52.376;8.990;2024-01-30T00:17:26;16.60;;;12.23;;
6973;SDS011;3527;52.376;8.990;2024-01-30T00:19:52;17.40;;;12.43;;
6973;SDS011;3527;52.376;8.990;2024-01-30T00:22:19;19.17;;;12.40;;
6973;SDS011;3527;52.376;8.990;2024-01-30T00:24:46;17.53;;;12.90;;
6973;SDS011;3527;52.376;8.990;2024-01-30T00:27:13;21.77;;;13.17;;
6973;SDS011;3527;52.376;8.990;2024-01-30T00:29:40;19.57;;;12.30;;
6973;SDS011;3527;52.376;8.990;2024-01-30T00:32:06;19.70;;;13.07;;
6973;SDS011;3527;52.376;8.990;2024-01-30T00:34:33;18.60;;;13.63;;
6973;SDS011;3527;52.376;8.990;2024-01-30T00:37:00;17.30;;;12.53;;
6973;SDS011;3527;52.376;8.990;2024-01-30T00:39:26;17.20;;;13.07;;
6973;SDS011;3527;52.376;8.990;2024-01-30T00:41:53;17.93;;;13.00;;
6973;SDS011;3527;52.376;8.990;2024-01-30T00:44:20;20.60;;;13.73;;
6973;SDS011;3527;52.376;8.990;2024-01-30T00:46:46;20.93;;;14.17;;
6973;SDS011;3527;52.376;8.990;2024-01-30T00:49:13;17.87;;;12.70;;
6973;SDS011;3527;52.376;8.990;2024-01-30T00:51:40;22.20;;;14.30;;
6973;SDS011;3527;52.376;8.990;2024-01-30T00:54:07;21.20;;;14.50;;
6973;SDS011;3527;52.376;8.990;2024-01-30T00:56:34;20.03;;;14.10;;
6973;SDS011;3527;52.376;8.990;2024-01-30T00:59:01;22.33;;;15.37;;
6973;SDS011;3527;52.376;8.990;2024-01-30T01:01:28;21.83;;;14.17;;
6973;SDS011;3527;52.376;8.990;2024-01-30T01:03:55;21.87;;;15.23;;
6973;SDS011;3527;52.376;8.990;2024-01-30T01:06:22;20.43;;;14.83;;
6973;SDS011;3527;52.376;8.990;2024-01-30T01:08:48;22.13;;;14.07;;
6973;SDS011;3527;52.376;8.990;2024-01-30T01:11:15;21.57;;;14.90;;
6973;SDS011;3527;52.376;8.990;2024-01-30T01:13:42;21.83;;;15.23;;
6973;SDS011;3527;52.376;8.990;2024-01-30T01:16:08;21.27;;;14.93;;
6973;SDS011;3527;52.376;8.990;2024-01-30T01:18:35;23.00;;;14.90;;
6973;SDS011;3527;52.376;8.990;2024-01-30T01:21:02;20.47;;;14.13;;
6973;SDS011;3527;52.376;8.990;2024-01-30T01:23:28;24.40;;;14.33;;
6973;SDS011;3527;52.376;8.990;2024-01-30T01:25:55;25.33;;;15.30;;
6973;SDS011;3527;52.376;8.990;2024-01-30T01:28:26;23.10;;;14.80;;
6973;SDS011;3527;52.376;8.990;2024-01-30T01:30:53;22.73;;;14.93;;
6973;SDS011;3527;52.376;8.990;2024-01-30T01:33:25;21.30;;;14.63;;
6973;SDS011;3527;52.376;8.990;2024-01-30T01:35:53;21.00;;;14.83;;
6973;SDS011;3527;52.376;8.990;2024-01-30T01:38:19;20.83;;;15.00;;
6973;SDS011;3527;52.376;8.990;2024-01-30T01:40:46;20.93;;;15.00;;
6973;SDS011;3527;52.376;8.990;2024-01-30T01:43:13;24.13;;;15.10;;
6973;SDS011;3527;52.376;8.990;2024-01-30T01:45:39;24.03;;;15.60;;
6973;SDS011;3527;52.376;8.990;2024-01-30T01:48:06;23.53;;;15.63;;
6973;SDS011;3527;52.376;8.990;2024-01-30T01:50:35;22.13;;;16.10;;
6973;SDS011;3527;52.376;8.990;2024-01-30T01:53:02;24.23;;;15.60;;
6973;SDS011;3527;52.376;8.990;2024-01-30T01:55:29;24.63;;;15.60;;
6973;SDS011;3527;52.376;8.990;2024-01-30T01:57:56;24.47;;;15.50;;
6973;SDS011;3527;52.376;8.990;2024-01-30T02:00:23;21.47;;;14.90;;
6973;SDS011;3527;52.376;8.990;2024-01-30T02:02:51;25.33;;;16.00;;
6973;SDS011;3527;52.376;8.990;2024-01-30T02:05:18;20.07;;;14.60;;
6973;SDS011;3527;52.376;8.990;2024-01-30T02:07:45;25.07;;;14.83;;
6973;SDS011;3527;52.376;8.990;2024-01-30T02:10:11;21.00;;;14.37;;
6973;SDS011;3527;52.376;8.990;2024-01-30T02:12:39;24.07;;;15.17;;
6973;SDS011;3527;52.376;8.990;2024-01-30T02:15:06;20.30;;;14.17;;
6973;SDS011;3527;52.376;8.990;2024-01-30T02:17:34;19.87;;;14.10;;
6973;SDS011;3527;52.376;8.990;2024-01-30T02:20:01;18.83;;;14.53;;
6973;SDS011;3527;52.376;8.990;2024-01-30T02:22:28;22.50;;;14.07;;
6973;SDS011;3527;52.376;8.990;2024-01-30T02:24:55;20.47;;;14.10;;
6973;SDS011;3527;52.376;8.990;2024-01-30T02:27:21;20.60;;;14.47;;
6973;SDS011;3527;52.376;8.990;2024-01-30T02:29:48;24.00;;;15.97;;
6973;SDS011;3527;52.376;8.990;2024-01-30T02:32:15;24.63;;;15.60;;
6973;SDS011;3527;52.376;8.990;2024-01-30T02:34:41;23.60;;;16.10;;
6973;SDS011;3527;52.376;8.990;2024-01-30T02:37:08;26.97;;;16.60;;
6973;SDS011;3527;52.376;8.990;2024-01-30T02:39:35;24.17;;;15.67;;
6973;SDS011;3527;52.376;8.990;2024-01-30T02:42:01;26.60;;;16.50;;
6973;SDS011;3527;52.376;8.990;2024-01-30T02:44:28;25.63;;;16.67;;
6973;SDS011;3527;52.376;8.990;2024-01-30T02:46:55;27.50;;;16.97;;
6973;SDS011;3527;52.376;8.990;2024-01-30T02:49:21;28.47;;;17.40;;
6973;SDS011;3527;52.376;8.990;2024-01-30T02:51:49;27.37;;;17.27;;
6973;SDS011;3527;52.376;8.990;2024-01-30T02:54:16;27.20;;;17.53;;
6973;SDS011;3527;52.376;8.990;2024-01-30T02:56:42;29.90;;;18.40;;
6973;SDS011;3527;52.376;8.990;2024-01-30T02:59:09;26.73;;;18.00;;
6973;SDS011;3527;52.376;8.990;2024-01-30T03:01:42;27.93;;;17.37;;
6973;SDS011;3527;52.376;8.990;2024-01-30T03:04:09;30.27;;;18.00;;
6973;SDS011;3527;52.376;8.990;2024-01-30T03:06:37;27.37;;;17.83;;
6973;SDS011;3527;52.376;8.990;2024-01-30T03:09:04;29.73;;;17.87;;
6973;SDS011;3527;52.376;8.990;2024-01-30T03:11:31;28.17;;;17.90;;
6973;SDS011;3527;52.376;8.990;2024-01-30T03:13:58;25.70;;;17.70;;
6973;SDS011;3527;52.376;8.990;2024-01-30T03:16:24;29.90;;;17.33;;
6973;SDS011;3527;52.376;8.990;2024-01-30T03:18:51;26.50;;;17.10;;
6973;SDS011;3527;52.376;8.990;2024-01-30T03:21:18;25.77;;;17.67;;
6973;SDS011;3527;52.376;8.990;2024-01-30T03:23:44;27.97;;;17.80;;
6973;SDS011;3527;52.376;8.990;2024-01-30T03:26:11;26.43;;;16.83;;
6973;SDS011;3527;52.376;8.990;2024-01-30T03:28:39;23.80;;;16.23;;
6973;SDS011;3527;52.376;8.990;2024-01-30T03:31:06;29.00;;;17.50;;
6973;SDS011;3527;52.376;8.990;2024-01-30T03:33:33;26.73;;;18.03;;
6973;SDS011;3527;52.376;8.990;2024-01-30T03:36:02;28.07;;;17.67;;
6973;SDS011;3527;52.376;8.990;2024-01-30T03:38:29;25.40;;;16.50;;
6973;SDS011;3527;52.376;8.990;2024-01-30T03:40:55;25.03;;;16.23;;
6973;SDS011;3527;52.376;8.990;2024-01-30T03:43:22;24.93;;;17.03;;
6973;SDS011;3527;52.376;8.990;2024-01-30T03:45:49;25.53;;;16.10;;
6973;SDS011;3527;52.376;8.990;2024-01-30T03:48:16;27.17;;;17.07;;
6973;SDS011;3527;52.376;8.990;2024-01-30T03:50:42;23.70;;;15.73;;
6973;SDS011;3527;52.376;8.990;2024-01-30T03:53:09;23.63;;;16.83;;
6973;SDS011;3527;52.376;8.990;2024-01-30T03:55:35;22.53;;;15.27;;
6973;SDS011;3527;52.376;8.990;2024-01-30T03:58:02;23.93;;;15.87;;
6973;SDS011;3527;52.376;8.990;2024-01-30T04:00:29;25.90;;;16.00;;
6973;SDS011;3527;52.376;8.990;2024-01-30T04:02:55;25.07;;;16.87;;
6973;SDS011;3527;52.376;8.990;2024-01-30T04:05:22;24.83;;;16.10;;
6973;SDS011;3527;52.376;8.990;2024-01-30T04:07:49;26.97;;;17.10;;
6973;SDS011;3527;52.376;8.990;2024-01-30T04:10:16;26.43;;;17.70;;
6973;SDS011;3527;52.376;8.990;2024-01-30T04:12:43;25.83;;;16.77;;
6973;SDS011;3527;52.376;8.990;2024-01-30T04:15:29;25.93;;;16.27;;
6973;SDS011;3527;52.376;8.990;2024-01-30T04:18:16;25.37;;;17.00;;
6973;SDS011;3527;52.376;8.990;2024-01-30T04:20:46;26.37;;;18.23;;
6973;SDS011;3527;52.376;8.990;2024-01-30T04:23:33;30.50;;;18.20;;
6973;SDS011;3527;52.376;8.990;2024-01-30T04:26:19;31.67;;;19.17;;
6973;SDS011;3527;52.376;8.990;2024-01-30T04:28:49;35.03;;;21.10;;
6973;SDS011;3527;52.376;8.990;2024-01-30T04:31:27;32.33;;;19.87;;
6973;SDS011;3527;52.376;8.990;2024-01-30T04:33:56;32.57;;;20.57;;
6973;SDS011;3527;52.376;8.990;2024-01-30T04:36:23;34.67;;;20.67;;
6973;SDS011;3527;52.376;8.990;2024-01-30T04:38:51;37.23;;;22.10;;
6973;SDS011;3527;52.376;8.990;2024-01-30T04:41:18;33.23;;;20.40;;
6973;SDS011;3527;52.376;8.990;2024-01-30T04:43:45;36.27;;;21.03;;
6973;SDS011;3527;52.376;8.990;2024-01-30T04:46:12;31.43;;;19.03;;
6973;SDS011;3527;52.376;8.990;2024-01-30T04:48:39;29.27;;;18.43;;
6973;SDS011;3527;52.376;8.990;2024-01-30T04:51:06;28.00;;;18.97;;
6973;SDS011;3527;52.376;8.990;2024-01-30T04:53:32;32.50;;;19.63;;
6973;SDS011;3527;52.376;8.990;2024-01-30T04:55:59;29.43;;;19.80;;
6973;SDS011;3527;52.376;8.990;2024-01-30T04:58:26;34.43;;;21.70;;
6973;SDS011;3527;52.376;8.990;2024-01-30T05:00:52;33.43;;;20.77;;
6973;SDS011;3527;52.376;8.990;2024-01-30T05:03:19;28.10;;;19.47;;
6973;SDS011;3527;52.376;8.990;2024-01-30T05:05:46;37.93;;;20.37;;
6973;SDS011;3527;52.376;8.990;2024-01-30T05:08:13;31.50;;;19.57;;
6973;SDS011;3527;52.376;8.990;2024-01-30T05:10:39;33.50;;;20.37;;
6973;SDS011;3527;52.376;8.990;2024-01-30T05:13:06;32.50;;;20.73;;
6973;SDS011;3527;52.376;8.990;2024-01-30T05:15:33;35.20;;;20.30;;
6973;SDS011;3527;52.376;8.990;2024-01-30T05:18:00;32.20;;;20.20;;
6973;SDS011;3527;52.376;8.990;2024-01-30T05:20:27;32.03;;;20.57;;
6973;SDS011;3527;52.376;8.990;2024-01-30T05:22:55;30.40;;;19.40;;
6973;SDS011;3527;52.376;8.990;2024-01-30T05:25:21;36.93;;;21.70;;
6973;SDS011;3527;52.376;8.990;2024-01-30T05:27:49;32.73;;;20.53;;
6973;SDS011;3527;52.376;8.990;2024-01-30T05:30:16;32.70;;;20.83;;
6973;SDS011;3527;52.376;8.990;2024-01-30T05:32:43;35.23;;;21.37;;
6973;SDS011;3527;52.376;8.990;2024-01-30T05:35:09;34.17;;;21.23;;
6973;SDS011;3527;52.376;8.990;2024-01-30T05:37:36;33.97;;;21.40;;
6973;SDS011;3527;52.376;8.990;2024-01-30T05:40:03;37.57;;;22.03;;
6973;SDS011;3527;52.376;8.990;2024-01-30T05:42:30;35.40;;;22.43;;
6973;SDS011;3527;52.376;8.990;2024-01-30T05:44:56;34.30;;;22.23;;
6973;SDS011;3527;52.376;8.990;2024-01-30T05:47:23;34.57;;;20.90;;
6973;SDS011;3527;52.376;8.990;2024-01-30T05:49:50;33.47;;;21.60;;
6973;SDS011;3527;52.376;8.990;2024-01-30T05:52:17;34.80;;;21.40;;
6973;SDS011;3527;52.376;8.990;2024-01-30T05:54:45;31.83;;;20.40;;
6973;SDS011;3527;52.376;8.990;2024-01-30T05:57:12;31.10;;;20.80;;
6973;SDS011;3527;52.376;8.990;2024-01-30T05:59:39;35.93;;;21.97;;
6973;SDS011;3527;52.376;8.990;2024-01-30T06:02:07;35.70;;;20.97;;
6973;SDS011;3527;52.376;8.990;2024-01-30T06:04:34;33.63;;;21.07;;
6973;SDS011;3527;52.376;8.990;2024-01-30T06:07:01;38.03;;;23.07;;
6973;SDS011;3527;52.376;8.990;2024-01-30T06:09:28;35.23;;;22.03;;
6973;SDS011;3527;52.376;8.990;2024-01-30T06:11:55;32.63;;;20.80;;
6973;SDS011;3527;52.376;8.990;2024-01-30T06:14:22;36.90;;;21.40;;
6973;SDS011;3527;52.376;8.990;2024-01-30T06:16:49;33.23;;;21.27;;
6973;SDS011;3527;52.376;8.990;2024-01-30T06:19:15;38.73;;;21.50;;
6973;SDS011;3527;52.376;8.990;2024-01-30T06:21:42;35.97;;;21.87;;
6973;SDS011;3527;52.376;8.990;2024-01-30T06:24:09;36.87;;;21.87;;
6973;SDS011;3527;52.376;8.990;2024-01-30T06:26:36;34.13;;;22.03;;
6973;SDS011;3527;52.376;8.990;2024-01-30T06:29:02;31.63;;;20.13;;
6973;SDS011;3527;52.376;8.990;2024-01-30T06:31:29;33.10;;;20.93;;
6973;SDS011;3527;52.376;8.990;2024-01-30T06:33:56;34.07;;;20.23;;
6973;SDS011;3527;52.376;8.990;2024-01-30T06:36:23;34.00;;;21.60;;
6973;SDS011;3527;52.376;8.990;2024-01-30T06:38:49;34.23;;;21.77;;
6973;SDS011;3527;52.376;8.990;2024-01-30T06:41:16;30.60;;;20.50;;
6973;SDS011;3527;52.376;8.990;2024-01-30T06:43:43;31.77;;;20.63;;
6973;SDS011;3527;52.376;8.990;2024-01-30T06:46:11;31.20;;;19.70;;
6973;SDS011;3527;52.376;8.990;2024-01-30T06:48:40;30.63;;;19.60;;
6973;SDS011;3527;52.376;8.990;2024-01-30T06:51:07;27.50;;;18.13;;
6973;SDS011;3527;52.376;8.990;2024-01-30T06:53:33;32.47;;;20.00;;
6973;SDS011;3527;52.376;8.990;2024-01-30T06:56:00;27.90;;;19.17;;
6973;SDS011;3527;52.376;8.990;2024-01-30T06:58:27;37.73;;;19.57;;
6973;SDS011;3527;52.376;8.990;2024-01-30T07:00:54;30.20;;;19.77;;
6973;SDS011;3527;52.376;8.990;2024-01-30T07:03:21;31.07;;;19.47;;
6973;SDS011;3527;52.376;8.990;2024-01-30T07:05:48;33.87;;;19.60;;
6973;SDS011;3527;52.376;8.990;2024-01-30T07:08:15;29.70;;;19.87;;
6973;SDS011;3527;52.376;8.990;2024-01-30T07:10:43;32.93;;;20.50;;
6973;SDS011;3527;52.376;8.990;2024-01-30T07:13:10;32.27;;;19.83;;
6973;SDS011;3527;52.376;8.990;2024-01-30T07:15:37;31.63;;;19.13;;
6973;SDS011;3527;52.376;8.990;2024-01-30T07:18:04;34.17;;;21.30;;
6973;SDS011;3527;52.376;8.990;2024-01-30T07:20:31;32.80;;;20.73;;
6973;SDS011;3527;52.376;8.990;2024-01-30T07:22:58;32.33;;;20.50;;
6973;SDS011;3527;52.376;8.990;2024-01-30T07:25:25;36.23;;;21.73;;
6973;SDS011;3527;52.376;8.990;2024-01-30T07:27:53;28.57;;;18.90;;
6973;SDS011;3527;52.376;8.990;2024-01-30T07:30:20;28.30;;;19.10;;
6973;SDS011;3527;52.376;8.990;2024-01-30T07:32:47;26.43;;;17.60;;
6973;SDS011;3527;52.376;8.990;2024-01-30T07:35:15;28.53;;;18.27;;
6973;SDS011;3527;52.376;8.990;2024-01-30T07:37:42;26.57;;;18.43;;
6973;SDS011;3527;52.376;8.990;2024-01-30T07:40:09;27.90;;;18.37;;
6973;SDS011;3527;52.376;8.990;2024-01-30T07:42:35;30.10;;;18.87;;
6973;SDS011;3527;52.376;8.990;2024-01-30T07:45:02;28.40;;;18.30;;
6973;SDS011;3527;52.376;8.990;2024-01-30T07:47:29;26.83;;;18.70;;
6973;SDS011;3527;52.376;8.990;2024-01-30T07:49:56;28.03;;;19.00;;
6973;SDS011;3527;52.376;8.990;2024-01-30T07:52:23;25.17;;;16.33;;
6973;SDS011;3527;52.376;8.990;2024-01-30T07:54:50;25.67;;;16.80;;
6973;SDS011;3527;52.376;8.990;2024-01-30T07:57:17;31.07;;;17.33;;
6973;SDS011;3527;52.376;8.990;2024-01-30T07:59:44;25.83;;;16.43;;
6973;SDS011;3527;52.376;8.990;2024-01-30T08:02:14;27.03;;;16.50;;
6973;SDS011;3527;52.376;8.990;2024-01-30T08:04:41;26.50;;;17.40;;
6973;SDS011;3527;52.376;8.990;2024-01-30T08:07:08;25.77;;;17.73;;
6973;SDS011;3527;52.376;8.990;2024-01-30T08:09:35;23.60;;;16.37;;
6973;SDS011;3527;52.376;8.990;2024-01-30T08:12:02;23.43;;;15.40;;
6973;SDS011;3527;52.376;8.990;2024-01-30T08:14:29;21.53;;;15.17;;
6973;SDS011;3527;52.376;8.990;2024-01-30T08:16:55;22.67;;;15.10;;
6973;SDS011;3527;52.376;8.990;2024-01-30T08:19:22;25.63;;;16.10;;
6973;SDS011;3527;52.376;8.990;2024-01-30T08:21:49;24.60;;;15.77;;
6973;SDS011;3527;52.376;8.990;2024-01-30T08:24:16;24.57;;;17.60;;
6973;SDS011;3527;52.376;8.990;2024-01-30T08:26:43;20.53;;;14.53;;
6973;SDS011;3527;52.376;8.990;2024-01-30T08:29:10;20.87;;;14.43;;
6973;SDS011;3527;52.376;8.990;2024-01-30T08:31:37;23.23;;;16.00;;
6973;SDS011;3527;52.376;8.990;2024-01-30T08:34:04;23.80;;;15.57;;
6973;SDS011;3527;52.376;8.990;2024-01-30T08:36:31;21.77;;;15.73;;
6973;SDS011;3527;52.376;8.990;2024-01-30T08:38:58;27.50;;;16.27;;
6973;SDS011;3527;52.376;8.990;2024-01-30T08:41:29;23.33;;;15.53;;
6973;SDS011;3527;52.376;8.990;2024-01-30T08:43:56;23.40;;;15.30;;
6973;SDS011;3527;52.376;8.990;2024-01-30T08:46:23;25.57;;;15.67;;
6973;SDS011;3527;52.376;8.990;2024-01-30T08:48:50;23.97;;;15.93;;
6973;SDS011;3527;52.376;8.990;2024-01-30T08:51:17;23.83;;;15.07;;
6973;SDS011;3527;52.376;8.990;2024-01-30T08:53:43;26.20;;;16.00;;
6973;SDS011;3527;52.376;8.990;2024-01-30T08:56:10;22.77;;;15.83;;
6973;SDS011;3527;52.376;8.990;2024-01-30T08:58:37;27.27;;;15.40;;
6973;SDS011;3527;52.376;8.990;2024-01-30T09:01:03;23.03;;;14.33;;
6973;SDS011;3527;52.376;8.990;2024-01-30T09:03:32;23.30;;;16.07;;
6973;SDS011;3527;52.376;8.990;2024-01-30T09:05:58;25.60;;;16.27;;
6973;SDS011;3527;52.376;8.990;2024-01-30T09:08:25;25.07;;;16.00;;
6973;SDS011;3527;52.376;8.990;2024-01-30T09:10:52;24.50;;;16.60;;
6973;SDS011;3527;52.376;8.990;2024-01-30T09:13:19;23.77;;;14.97;;
6973;SDS011;3527;52.376;8.990;2024-01-30T09:15:45;21.37;;;15.73;;
6973;SDS011;3527;52.376;8.990;2024-01-30T09:18:12;19.53;;;13.97;;
6973;SDS011;3527;52.376;8.990;2024-01-30T09:20:39;20.17;;;14.50;;
6973;SDS011;3527;52.376;8.990;2024-01-30T09:23:06;21.23;;;13.07;;
6973;SDS011;3527;52.376;8.990;2024-01-30T09:25:32;20.27;;;14.53;;
6973;SDS011;3527;52.376;8.990;2024-01-30T09:28:00;19.03;;;13.93;;
6973;SDS011;3527;52.376;8.990;2024-01-30T09:30:27;20.50;;;13.07;;
6973;SDS011;3527;52.376;8.990;2024-01-30T09:32:54;16.80;;;12.03;;
6973;SDS011;3527;52.376;8.990;2024-01-30T09:35:21;18.43;;;12.47;;
6973;SDS011;3527;52.376;8.990;2024-01-30T09:37:47;15.23;;;11.77;;
6973;SDS011;3527;52.376;8.990;2024-01-30T09:40:14;16.80;;;12.10;;
6973;SDS011;3527;52.376;8.990;2024-01-30T09:42:49;14.30;;;10.83;;
6973;SDS011;3527;52.376;8.990;2024-01-30T09:45:23;13.97;;;11.30;;
6973;SDS011;3527;52.376;8.990;2024-01-30T09:47:50;16.77;;;11.10;;
6973;SDS011;3527;52.376;8.990;2024-01-30T09:50:19;13.67;;;10.20;;
6973;SDS011;3527;52.376;8.990;2024-01-30T09:52:46;15.50;;;10.03;;
6973;SDS011;3527;52.376;8.990;2024-01-30T09:55:13;16.43;;;10.27;;
6973;SDS011;3527;52.376;8.990;2024-01-30T09:57:41;14.00;;;10.23;;
6973;SDS011;3527;52.376;8.990;2024-01-30T10:00:08;16.07;;;10.07;;
6973;SDS011;3527;52.376;8.990;2024-01-30T10:02:35;13.67;;;10.03;;
6973;SDS011;3527;52.376;8.990;2024-01-30T10:05:02;13.37;;;9.70;;
6973;SDS011;3527;52.376;8.990;2024-01-30T10:07:30;11.37;;;9.07;;
6973;SDS011;3527;52.376;8.990;2024-01-30T10:09:57;15.00;;;9.77;;
6973;SDS011;3527;52.376;8.990;2024-01-30T10:12:27;14.97;;;10.47;;
6973;SDS011;3527;52.376;8.990;2024-01-30T10:14:55;13.03;;;9.27;;
6973;SDS011;3527;52.376;8.990;2024-01-30T10:17:24;14.00;;;9.50;;
6973;SDS011;3527;52.376;8.990;2024-01-30T10:19:59;12.63;;;9.17;;
6973;SDS011;3527;52.376;8.990;2024-01-30T10:22:26;12.80;;;9.53;;
6973;SDS011;3527;52.376;8.990;2024-01-30T10:24:53;12.73;;;9.60;;
6973;SDS011;3527;52.376;8.990;2024-01-30T10:27:26;11.60;;;8.13;;
6973;SDS011;3527;52.376;8.990;2024-01-30T10:29:56;11.67;;;8.13;;
6973;SDS011;3527;52.376;8.990;2024-01-30T10:32:23;10.77;;;8.50;;
6973;SDS011;3527;52.376;8.990;2024-01-30T10:34:50;12.07;;;8.97;;
6973;SDS011;3527;52.376;8.990;2024-01-30T10:37:16;10.40;;;8.40;;
6973;SDS011;3527;52.376;8.990;2024-01-30T10:39:44;14.20;;;9.37;;
6973;SDS011;3527;52.376;8.990;2024-01-30T10:42:20;13.70;;;8.90;;
6973;SDS011;3527;52.376;8.990;2024-01-30T10:47:25;11.00;;;8.23;;
6973;SDS011;3527;52.376;8.990;2024-01-30T10:49:52;13.40;;;8.20;;
6973;SDS011;3527;52.376;8.990;2024-01-30T10:52:21;11.43;;;7.80;;
6973;SDS011;3527;52.376;8.990;2024-01-30T10:54:49;10.57;;;8.37;;
6973;SDS011;3527;52.376;8.990;2024-01-30T10:57:16;9.87;;;7.77;;
6973;SDS011;3527;52.376;8.990;2024-01-30T10:59:44;11.97;;;8.20;;
6973;SDS011;3527;52.376;8.990;2024-01-30T11:02:12;11.87;;;7.97;;
6973;SDS011;3527;52.376;8.990;2024-01-30T11:04:42;12.10;;;8.20;;
6973;SDS011;3527;52.376;8.990;2024-01-30T11:09:52;13.70;;;8.37;;
6973;SDS011;3527;52.376;8.990;2024-01-30T11:12:22;11.70;;;8.60;;
6973;SDS011;3527;52.376;8.990;2024-01-30T11:14:50;12.20;;;8.10;;
6973;SDS011;3527;52.376;8.990;2024-01-30T11:17:28;10.13;;;7.83;;
6973;SDS011;3527;52.376;8.990;2024-01-30T11:19:55;11.17;;;7.70;;
6973;SDS011;3527;52.376;8.990;2024-01-30T11:22:25;14.40;;;8.00;;
6973;SDS011;3527;52.376;8.990;2024-01-30T11:24:52;12.07;;;8.17;;
6973;SDS011;3527;52.376;8.990;2024-01-30T11:27:18;12.80;;;8.43;;
6973;SDS011;3527;52.376;8.990;2024-01-30T11:29:49;13.07;;;8.80;;
6973;SDS011;3527;52.376;8.990;2024-01-30T11:32:21;9.50;;;7.90;;
6973;SDS011;3527;52.376;8.990;2024-01-30T11:34:49;11.93;;;8.23;;
6973;SDS011;3527;52.376;8.990;2024-01-30T11:37:16;9.47;;;7.30;;
6973;SDS011;3527;52.376;8.990;2024-01-30T11:39:46;12.63;;;7.63;;
6973;SDS011;3527;52.376;8.990;2024-01-30T11:42:13;10.17;;;7.33;;
6973;SDS011;3527;52.376;8.990;2024-01-30T11:44:40;12.00;;;6.93;;
6973;SDS011;3527;52.376;8.990;2024-01-30T11:47:07;11.63;;;7.10;;
6973;SDS011;3527;52.376;8.990;2024-01-30T11:49:34;9.87;;;6.93;;
6973;SDS011;3527;52.376;8.990;2024-01-30T11:52:01;11.57;;;6.80;;
6973;SDS011;3527;52.376;8.990;2024-01-30T11:54:28;9.17;;;6.30;;
6973;SDS011;3527;52.376;8.990;2024-01-30T11:56:55;10.63;;;7.47;;
6973;SDS011;3527;52.376;8.990;2024-01-30T11:59:21;9.83;;;6.30;;
6973;SDS011;3527;52.376;8.990;2024-01-30T12:01:48;9.23;;;7.03;;
6973;SDS011;3527;52.376;8.990;2024-01-30T12:04:15;11.40;;;6.47;;
6973;SDS011;3527;52.376;8.990;2024-01-30T12:06:42;8.73;;;6.60;;
6973;SDS011;3527;52.376;8.990;2024-01-30T12:09:09;8.87;;;6.40;;
6973;SDS011;3527;52.376;8.990;2024-01-30T12:11:43;8.97;;;5.60;;
6973;SDS011;3527;52.376;8.990;2024-01-30T12:14:10;8.70;;;6.10;;
6973;SDS011;3527;52.376;8.990;2024-01-30T12:16:37;10.03;;;6.27;;
6973;SDS011;3527;52.376;8.990;2024-01-30T12:19:04;11.27;;;6.53;;
6973;SDS011;3527;52.376;8.990;2024-01-30T12:21:31;11.27;;;6.87;;
6973;SDS011;3527;52.376;8.990;2024-01-30T12:23:58;10.83;;;6.70;;
6973;SDS011;3527;52.376;8.990;2024-01-30T12:26:26;9.03;;;6.00;;
6973;SDS011;3527;52.376;8.990;2024-01-30T12:28:56;8.90;;;6.20;;
6973;SDS011;3527;52.376;8.990;2024-01-30T12:31:26;11.60;;;6.63;;
6973;SDS011;3527;52.376;8.990;2024-01-30T12:33:54;9.27;;;6.57;;
6973;SDS011;3527;52.376;8.990;2024-01-30T12:36:22;10.37;;;6.23;;
6973;SDS011;3527;52.376;8.990;2024-01-30T12:38:49;8.87;;;6.27;;
6973;SDS011;3527;52.376;8.990;2024-01-30T12:41:16;9.17;;;5.70;;
6973;SDS011;3527;52.376;8.990;2024-01-30T12:43:43;9.83;;;5.70;;
6973;SDS011;3527;52.376;8.990;2024-01-30T12:46:10;9.07;;;6.10;;
6973;SDS011;3527;52.376;8.990;2024-01-30T12:48:37;9.97;;;6.10;;
6973;SDS011;3527;52.376;8.990;2024-01-30T12:51:04;8.73;;;6.30;;
6973;SDS011;3527;52.376;8.990;2024-01-30T12:53:31;10.37;;;6.33;;
6973;SDS011;3527;52.376;8.990;2024-01-30T12:55:57;13.20;;;7.07;;
6973;SDS011;3527;52.376;8.990;2024-01-30T12:58:24;12.03;;;6.50;;
6973;SDS011;3527;52.376;8.990;2024-01-30T13:00:51;13.23;;;6.70;;
6973;SDS011;3527;52.376;8.990;2024-01-30T13:03:18;10.43;;;6.30;;
6973;SDS011;3527;52.376;8.990;2024-01-30T13:05:45;11.83;;;7.33;;
6973;SDS011;3527;52.376;8.990;2024-01-30T13:08:12;12.93;;;7.00;;
6973;SDS011;3527;52.376;8.990;2024-01-30T13:10:38;11.83;;;6.77;;
6973;SDS011;3527;52.376;8.990;2024-01-30T13:13:05;12.20;;;7.20;;
6973;SDS011;3527;52.376;8.990;2024-01-30T13:15:39;11.60;;;6.13;;
6973;SDS011;3527;52.376;8.990;2024-01-30T13:18:06;10.43;;;6.63;;
6973;SDS011;3527;52.376;8.990;2024-01-30T13:20:33;10.00;;;7.03;;
6973;SDS011;3527;52.376;8.990;2024-01-30T13:23:00;12.70;;;7.03;;
6973;SDS011;3527;52.376;8.990;2024-01-30T13:25:26;9.53;;;6.77;;
6973;SDS011;3527;52.376;8.990;2024-01-30T13:27:53;10.37;;;6.90;;
6973;SDS011;3527;52.376;8.990;2024-01-30T13:30:20;11.13;;;7.10;;
6973;SDS011;3527;52.376;8.990;2024-01-30T13:32:47;12.20;;;8.10;;
6973;SDS011;3527;52.376;8.990;2024-01-30T13:35:13;12.87;;;7.30;;
6973;SDS011;3527;52.376;8.990;2024-01-30T13:37:40;14.73;;;7.03;;
6973;SDS011;3527;52.376;8.990;2024-01-30T13:40:08;12.40;;;7.00;;
6973;SDS011;3527;52.376;8.990;2024-01-30T13:42:40;10.57;;;6.90;;
6973;SDS011;3527;52.376;8.990;2024-01-30T13:45:06;11.97;;;7.30;;
6973;SDS011;3527;52.376;8.990;2024-01-30T13:47:37;14.90;;;8.47;;
6973;SDS011;3527;52.376;8.990;2024-01-30T13:50:04;13.27;;;7.47;;
6973;SDS011;3527;52.376;8.990;2024-01-30T13:52:32;14.57;;;7.90;;
6973;SDS011;3527;52.376;8.990;2024-01-30T13:55:09;11.60;;;6.87;;
6973;SDS011;3527;52.376;8.990;2024-01-30T13:57:36;11.87;;;7.57;;
6973;SDS011;3527;52.376;8.990;2024-01-30T14:00:03;11.03;;;7.27;;
6973;SDS011;3527;52.376;8.990;2024-01-30T14:02:33;13.50;;;7.20;;
6973;SDS011;3527;52.376;8.990;2024-01-30T14:05:01;16.90;;;8.70;;
6973;SDS011;3527;52.376;8.990;2024-01-30T14:07:28;10.67;;;7.83;;
6973;SDS011;3527;52.376;8.990;2024-01-30T14:09:55;11.30;;;8.00;;
6973;SDS011;3527;52.376;8.990;2024-01-30T14:12:22;13.50;;;7.83;;
6973;SDS011;3527;52.376;8.990;2024-01-30T14:14:49;11.37;;;7.97;;
6973;SDS011;3527;52.376;8.990;2024-01-30T14:17:16;13.07;;;8.20;;
6973;SDS011;3527;52.376;8.990;2024-01-30T14:19:43;13.43;;;8.20;;
6973;SDS011;3527;52.376;8.990;2024-01-30T14:22:10;14.03;;;8.70;;
6973;SDS011;3527;52.376;8.990;2024-01-30T14:24:37;11.80;;;8.40;;
6973;SDS011;3527;52.376;8.990;2024-01-30T14:27:04;16.40;;;8.87;;
6973;SDS011;3527;52.376;8.990;2024-01-30T14:29:30;14.20;;;8.67;;
6973;SDS011;3527;52.376;8.990;2024-01-30T14:31:57;14.73;;;8.77;;
6973;SDS011;3527;52.376;8.990;2024-01-30T14:34:24;13.20;;;9.60;;
6973;SDS011;3527;52.376;8.990;2024-01-30T14:36:50;13.90;;;8.63;;
6973;SDS011;3527;52.376;8.990;2024-01-30T14:39:17;17.37;;;10.13;;
6973;SDS011;3527;52.376;8.990;2024-01-30T14:41:44;18.30;;;8.63;;
6973;SDS011;3527;52.376;8.990;2024-01-30T14:44:11;12.77;;;9.47;;
6973;SDS011;3527;52.376;8.990;2024-01-30T14:46:38;14.40;;;9.70;;
6973;SDS011;3527;52.376;8.990;2024-01-30T14:49:04;13.63;;;8.80;;
6973;SDS011;3527;52.376;8.990;2024-01-30T14:51:33;15.50;;;9.77;;
6973;SDS011;3527;52.376;8.990;2024-01-30T14:54:00;14.60;;;10.17;;
6973;SDS011;3527;52.376;8.990;2024-01-30T14:56:26;12.30;;;8.40;;
6973;SDS011;3527;52.376;8.990;2024-01-30T14:58:53;13.23;;;9.13;;